createdAt,value
2023-05-06T00:00:31.837Z,1.42
2023-05-06T00:03:34.530Z,1.35
2023-05-06T00:06:37.024Z,1.60
2023-05-06T00:09:38.765Z,1.35
2023-05-06T00:12:41.861Z,1.42
2023-05-06T00:15:43.501Z,1.50
2023-05-06T00:18:45.271Z,1.25
2023-05-06T00:21:47.013Z,1.08
2023-05-06T00:24:48.821Z,1.13
2023-05-06T00:27:53.190Z,1.33
2023-05-06T00:30:55.003Z,1.33
2023-05-06T00:33:56.722Z,1.23
2023-05-06T00:36:58.492Z,1.38
2023-05-06T00:40:00.247Z,1.70
2023-05-06T00:43:03.631Z,1.25
2023-05-06T00:46:09.353Z,1.20
2023-05-06T00:49:12.338Z,1.30
2023-05-06T00:52:14.897Z,1.30
2023-05-06T00:55:17.099Z,1.45
2023-05-06T00:58:21.134Z,1.30
2023-05-06T01:01:23.955Z,1.05
2023-05-06T01:04:26.909Z,1.30
2023-05-06T01:07:36.065Z,1.20
2023-05-06T01:10:45.192Z,1.58
2023-05-06T01:13:57.185Z,1.67
2023-05-06T01:17:04.445Z,1.42
2023-05-06T01:20:10.941Z,1.38
2023-05-06T01:23:15.314Z,1.35
2023-05-06T01:26:17.168Z,1.20
2023-05-06T01:29:19.072Z,1.35
2023-05-06T01:32:40.097Z,1.10
2023-05-06T01:35:53.517Z,1.42
2023-05-06T01:39:03.369Z,1.20
2023-05-06T01:42:06.643Z,1.50
2023-05-06T01:45:11.620Z,1.40
2023-05-06T01:48:13.738Z,1.30
2023-05-06T01:51:16.090Z,1.27
2023-05-06T01:54:19.491Z,1.23
2023-05-06T01:57:21.171Z,1.02
2023-05-06T02:00:25.079Z,1.65
2023-05-06T02:03:26.928Z,1.30
2023-05-06T02:06:28.659Z,1.25
2023-05-06T02:09:31.758Z,1.60
2023-05-06T02:12:36.614Z,1.10
2023-05-06T02:15:38.794Z,1.25
2023-05-06T02:21:46.568Z,1.33
2023-05-06T02:24:49.866Z,1.30
2023-05-06T02:27:51.588Z,1.20
2023-05-06T02:30:56.009Z,1.30
2023-05-06T02:33:57.626Z,1.08
2023-05-06T02:36:59.396Z,1.50
2023-05-06T02:40:02.539Z,1.38
2023-05-06T02:43:06.841Z,1.13
2023-05-06T02:46:09.451Z,1.60
2023-05-06T02:49:12.531Z,1.52
2023-05-06T02:52:14.151Z,1.60
2023-05-06T02:55:18.666Z,1.40
2023-05-06T02:58:20.333Z,1.70
2023-05-06T03:01:22.264Z,1.60
2023-05-06T03:04:24.120Z,1.77
2023-05-06T03:07:25.932Z,1.45
2023-05-06T03:10:29.172Z,1.73
2023-05-06T03:13:32.134Z,1.48
2023-05-06T03:16:34.000Z,1.85
2023-05-06T03:19:36.410Z,1.77
2023-05-06T03:22:42.312Z,1.45
2023-05-06T03:25:45.738Z,1.17
2023-05-06T03:28:48.267Z,1.20
2023-05-06T03:31:56.289Z,1.70
2023-05-06T03:34:59.129Z,1.33
2023-05-06T03:38:01.417Z,1.65
2023-05-06T03:41:21.413Z,1.48
2023-05-06T03:44:24.528Z,1.33
2023-05-06T03:47:26.542Z,1.50
2023-05-06T03:50:29.084Z,1.33
2023-05-06T03:53:30.937Z,1.67
2023-05-06T03:56:34.276Z,1.50
2023-05-06T03:59:36.136Z,1.17
2023-05-06T04:02:40.010Z,1.58
2023-05-06T04:05:42.093Z,1.70
2023-05-06T04:08:47.086Z,1.30
2023-05-06T04:11:50.686Z,1.58
2023-05-06T04:14:53.579Z,1.48
2023-05-06T04:17:55.970Z,1.55
2023-05-06T04:20:57.761Z,1.30
2023-05-06T04:24:00.565Z,1.60
2023-05-06T04:27:10.402Z,1.38
2023-05-06T04:30:13.711Z,1.23
2023-05-06T04:33:16.704Z,1.48
2023-05-06T04:36:19.886Z,1.70
2023-05-06T04:39:42.769Z,1.25
2023-05-06T04:42:46.758Z,1.58
2023-05-06T04:45:54.359Z,2.03
2023-05-06T04:49:01.430Z,1.92
2023-05-06T04:52:04.932Z,1.73
2023-05-06T04:55:09.287Z,1.85
2023-05-06T04:58:14.589Z,1.60
2023-05-06T05:01:17.059Z,1.77
2023-05-06T05:04:19.219Z,1.50
2023-05-06T05:07:22.468Z,1.33
2023-05-06T05:10:24.470Z,1.70
2023-05-06T05:13:29.461Z,1.63
2023-05-06T05:16:32.509Z,1.50
2023-05-06T05:19:35.903Z,1.90
2023-05-06T05:22:37.928Z,1.60
2023-05-06T05:25:40.547Z,1.50
2023-05-06T05:28:44.424Z,1.50
2023-05-06T05:31:47.663Z,1.58
2023-05-06T05:34:49.622Z,1.88
2023-05-06T05:37:54.004Z,1.40
2023-05-06T05:40:56.243Z,1.50
2023-05-06T05:44:00.071Z,1.27
2023-05-06T05:47:02.376Z,1.52
2023-05-06T05:50:05.076Z,1.73
2023-05-06T05:53:07.486Z,1.95
2023-05-06T05:56:12.783Z,1.50
2023-05-06T05:59:17.024Z,1.77
2023-05-06T06:02:22.027Z,1.70
2023-05-06T06:05:24.381Z,2.30
2023-05-06T06:08:26.786Z,1.58
2023-05-06T06:11:30.525Z,2.20
2023-05-06T06:14:34.937Z,2.10
2023-05-06T06:17:37.611Z,2.05
2023-05-06T06:20:41.204Z,2.65
2023-05-06T06:23:44.298Z,2.80
2023-05-06T06:26:46.193Z,2.60
2023-05-06T06:29:52.410Z,2.55
2023-05-06T06:32:55.026Z,2.40
2023-05-06T06:35:57.128Z,2.92
2023-05-06T06:38:59.025Z,2.22
2023-05-06T06:42:04.166Z,2.05
2023-05-06T06:45:14.170Z,2.60
2023-05-06T06:48:16.537Z,2.53
2023-05-06T06:51:18.157Z,2.17
2023-05-06T06:54:21.027Z,2.53
2023-05-06T06:57:23.938Z,2.70
2023-05-06T07:00:27.069Z,2.53
2023-05-06T07:03:28.836Z,2.00
2023-05-06T07:06:30.572Z,2.33
2023-05-06T07:09:33.837Z,2.97
2023-05-06T07:12:37.177Z,3.00
2023-05-06T07:15:40.971Z,2.53
2023-05-06T07:18:42.676Z,2.47
2023-05-06T07:21:44.421Z,2.47
2023-05-06T07:24:46.277Z,2.47
2023-05-06T07:27:48.359Z,2.47
2023-05-06T07:30:51.861Z,2.90
2023-05-06T07:33:55.448Z,2.58
2023-05-06T07:36:57.548Z,2.72
2023-05-06T07:39:59.524Z,2.67
2023-05-06T07:43:02.494Z,3.08
2023-05-06T07:46:06.069Z,2.13
2023-05-06T07:49:08.005Z,2.65
2023-05-06T07:52:09.867Z,2.58
2023-05-06T07:55:12.178Z,2.53
2023-05-06T07:58:14.154Z,2.63
2023-05-06T08:01:17.656Z,2.60
2023-05-06T08:04:19.479Z,2.63
2023-05-06T08:07:21.827Z,2.10
2023-05-06T08:10:24.107Z,2.20
2023-05-06T08:13:27.492Z,2.63
2023-05-06T08:16:31.128Z,1.92
2023-05-06T08:19:32.996Z,3.03
2023-05-06T08:22:34.888Z,2.92
2023-05-06T08:25:36.600Z,2.97
2023-05-06T08:28:38.542Z,2.72
2023-05-06T08:31:43.332Z,2.35
2023-05-06T08:34:47.498Z,2.92
2023-05-06T08:37:49.381Z,2.97
2023-05-06T08:40:53.456Z,2.35
2023-05-06T08:43:57.406Z,2.20
2023-05-06T08:47:00.911Z,2.38
2023-05-06T08:50:02.650Z,1.95
2023-05-06T08:53:04.574Z,1.80
2023-05-06T08:56:08.653Z,1.42
2023-05-06T08:59:11.693Z,1.50
2023-05-06T09:02:15.364Z,1.48
2023-05-06T09:05:17.691Z,1.77
2023-05-06T09:08:19.578Z,1.40
2023-05-06T09:11:23.035Z,1.08
2023-05-06T09:14:25.157Z,0.98
2023-05-06T09:17:32.126Z,1.17
2023-05-06T09:20:34.328Z,1.15
2023-05-06T09:23:38.198Z,1.00
2023-05-06T09:26:41.158Z,1.10
2023-05-06T09:30:00.201Z,0.95
2023-05-06T09:33:05.136Z,0.85
2023-05-06T09:36:07.194Z,0.52
2023-05-06T09:40:59.744Z,0.95
2023-05-06T09:44:01.858Z,0.68
2023-05-06T09:47:04.004Z,0.45
2023-05-06T09:50:08.966Z,0.47
2023-05-06T09:53:12.411Z,0.47
2023-05-06T09:56:19.594Z,0.40
2023-05-06T10:02:24.614Z,0.60
2023-05-06T10:05:28.939Z,0.60
2023-05-06T10:08:33.572Z,0.77
2023-05-06T10:11:37.424Z,0.70
2023-05-06T10:14:40.012Z,0.50
2023-05-06T10:17:45.232Z,0.50
2023-05-06T10:20:49.195Z,0.57
2023-05-06T10:23:56.447Z,0.30
2023-05-06T10:27:03.193Z,0.80
2023-05-06T10:30:07.430Z,0.60
2023-05-06T10:33:10.844Z,0.60
2023-05-06T10:36:20.713Z,0.60
2023-05-06T10:39:22.426Z,0.80
2023-05-06T10:42:28.392Z,0.60
2023-05-06T10:45:50.569Z,0.70
2023-05-06T10:49:16.448Z,0.40
2023-05-06T10:52:21.904Z,0.55
2023-05-06T10:55:29.618Z,0.50
2023-05-06T10:58:36.367Z,0.55
2023-05-06T11:01:39.908Z,0.60
2023-05-06T11:04:41.907Z,0.47
2023-05-06T11:07:43.804Z,0.85
2023-05-06T11:10:45.685Z,0.70
2023-05-06T11:13:53.134Z,0.82
2023-05-06T11:16:59.502Z,0.70
2023-05-06T11:20:21.602Z,0.60
2023-05-06T11:24:06.350Z,0.73
2023-05-06T11:27:09.747Z,1.67
2023-05-06T11:30:15.393Z,0.70
2023-05-06T11:33:19.556Z,0.52
2023-05-06T11:36:21.885Z,0.88
2023-05-06T11:39:23.771Z,0.60
2023-05-06T11:42:27.618Z,0.68
2023-05-06T11:45:42.017Z,0.90
2023-05-06T11:48:44.324Z,0.70
2023-05-06T11:51:48.158Z,0.70
2023-05-06T11:54:52.380Z,0.98
2023-05-06T11:57:55.131Z,0.98
2023-05-06T12:01:00.181Z,1.00
2023-05-06T12:04:02.561Z,1.10
2023-05-06T12:07:06.015Z,0.93
2023-05-06T12:10:09.138Z,0.90
2023-05-06T12:13:12.082Z,1.05
2023-05-06T12:16:15.652Z,0.90
2023-05-06T12:19:18.743Z,0.90
2023-05-06T12:22:21.975Z,1.40
2023-05-06T12:25:23.973Z,1.13
2023-05-06T12:28:26.894Z,1.33
2023-05-06T12:31:31.189Z,1.73
2023-05-06T12:34:37.075Z,1.10
2023-05-06T12:37:39.557Z,1.00
2023-05-06T12:40:42.434Z,1.10
2023-05-06T12:43:44.282Z,1.23
2023-05-06T12:46:52.903Z,1.13
2023-05-06T12:49:58.028Z,0.85
2023-05-06T12:53:00.442Z,1.00
2023-05-06T12:56:02.214Z,1.00
2023-05-06T12:59:04.189Z,0.95
2023-05-06T13:02:07.688Z,0.90
2023-05-06T13:05:09.807Z,1.20
2023-05-06T13:08:14.050Z,1.13
2023-05-06T13:11:16.260Z,1.20
2023-05-06T13:14:17.994Z,0.82
2023-05-06T13:17:21.317Z,0.70
2023-05-06T13:20:23.241Z,0.60
2023-05-06T13:23:24.952Z,0.70
2023-05-06T13:26:29.340Z,0.70
2023-05-06T13:29:31.817Z,0.40
2023-05-06T13:32:35.284Z,0.40
2023-05-06T13:35:37.006Z,0.47
2023-05-06T13:38:39.799Z,0.60
2023-05-06T13:41:42.746Z,0.57
2023-05-06T13:44:44.487Z,0.60
2023-05-06T13:47:47.633Z,0.52
2023-05-06T13:50:49.318Z,0.60
2023-05-06T13:53:51.984Z,1.58
2023-05-06T13:56:55.641Z,0.45
2023-05-06T13:59:57.290Z,0.52
2023-05-06T14:03:01.328Z,0.50
2023-05-06T14:09:05.134Z,0.40
2023-05-06T14:12:10.244Z,0.43
2023-05-06T14:15:12.263Z,0.35
2023-05-06T14:18:16.693Z,0.40
2023-05-06T14:21:21.787Z,0.40
2023-05-06T14:24:23.616Z,0.40
2023-05-06T14:27:25.688Z,0.50
2023-05-06T14:30:27.670Z,0.47
2023-05-06T14:33:31.306Z,0.52
2023-05-06T14:36:33.167Z,0.50
2023-05-06T14:39:34.974Z,0.50
2023-05-06T14:42:36.876Z,3.80
2023-05-06T14:45:38.672Z,0.60
2023-05-06T14:48:42.594Z,0.70
2023-05-06T14:51:49.808Z,3.50
2023-05-06T14:54:51.700Z,3.50
2023-05-06T14:57:53.486Z,0.60
2023-05-06T15:00:55.198Z,0.70
2023-05-06T15:03:58.265Z,0.55
2023-05-06T15:07:00.000Z,0.73
2023-05-06T15:10:02.841Z,0.77
2023-05-06T15:13:05.151Z,0.70
2023-05-06T15:16:09.143Z,0.98
2023-05-06T15:19:14.344Z,0.70
2023-05-06T15:22:16.300Z,0.45
2023-05-06T15:25:33.381Z,0.47
2023-05-06T15:28:39.687Z,0.60
2023-05-06T15:31:43.999Z,0.60
2023-05-06T15:34:47.116Z,0.43
2023-05-06T15:37:49.002Z,0.40
2023-05-06T15:40:52.259Z,0.60
2023-05-06T15:43:55.625Z,0.45
2023-05-06T15:46:57.310Z,0.60
2023-05-06T15:50:01.581Z,0.55
2023-05-06T15:53:03.540Z,0.40
2023-05-06T15:59:09.314Z,0.43
2023-05-06T16:05:17.604Z,0.50
2023-05-06T16:08:19.609Z,0.40
2023-05-06T16:11:21.421Z,0.57
2023-05-06T16:14:24.152Z,0.40
2023-05-06T16:17:26.011Z,0.40
2023-05-06T16:20:30.356Z,0.60
2023-05-06T16:23:32.780Z,0.40
2023-05-06T16:26:34.522Z,1.77
2023-05-06T16:29:36.373Z,0.60
2023-05-06T16:32:38.319Z,0.60
2023-05-06T16:35:42.625Z,0.40
2023-05-06T16:38:44.679Z,0.47
2023-05-06T16:41:46.836Z,0.50
2023-05-06T16:44:49.474Z,1.35
2023-05-06T16:47:51.361Z,1.92
2023-05-06T16:50:54.578Z,2.20
2023-05-06T16:53:56.415Z,1.33
2023-05-06T16:56:58.321Z,0.50
2023-05-06T17:00:01.799Z,0.80
2023-05-06T17:03:04.643Z,0.50
2023-05-06T17:06:08.325Z,0.50
2023-05-06T17:09:10.706Z,0.45
2023-05-06T17:12:13.346Z,0.65
2023-05-06T17:15:16.707Z,0.57
2023-05-06T17:18:18.413Z,0.60
2023-05-06T17:21:21.528Z,0.50
2023-05-06T17:24:23.711Z,0.65
2023-05-06T17:27:27.017Z,0.40
2023-05-06T17:30:28.876Z,0.50
2023-05-06T17:33:30.578Z,0.70
2023-05-06T17:36:33.752Z,0.50
2023-05-06T17:39:36.301Z,0.43
2023-05-06T17:42:38.788Z,0.40
2023-05-06T17:45:41.548Z,0.40
2023-05-06T17:48:43.234Z,0.30
2023-05-06T17:51:46.388Z,0.40
2023-05-06T17:54:57.038Z,0.40
2023-05-06T17:58:08.760Z,0.82
2023-05-06T18:01:11.480Z,0.50
2023-05-06T18:04:13.620Z,0.65
2023-05-06T18:07:17.789Z,0.60
2023-05-06T18:10:20.058Z,0.45
2023-05-06T18:13:22.815Z,0.60
2023-05-06T18:16:24.834Z,0.50
2023-05-06T18:19:27.433Z,0.30
2023-05-06T18:22:30.745Z,0.50
2023-05-06T18:25:33.150Z,0.50
2023-05-06T18:28:38.013Z,0.55
2023-05-06T18:31:39.893Z,0.57
2023-05-06T18:34:41.910Z,1.00
2023-05-06T18:37:45.107Z,0.60
2023-05-06T18:40:47.349Z,0.90
2023-05-06T18:43:49.012Z,0.80
2023-05-06T18:46:51.072Z,0.90
2023-05-06T18:49:53.432Z,0.75
2023-05-06T18:52:56.568Z,0.75
2023-05-06T18:55:59.438Z,0.65
2023-05-06T18:59:02.242Z,0.68
2023-05-06T19:02:05.772Z,0.40
2023-05-06T19:05:08.623Z,0.50
2023-05-06T19:08:13.652Z,0.63
2023-05-06T19:11:16.781Z,0.35
2023-05-06T19:14:19.454Z,0.40
2023-05-06T19:17:21.190Z,0.40
2023-05-06T19:20:22.881Z,0.70
2023-05-06T19:23:26.868Z,0.60
2023-05-06T19:26:28.626Z,0.50
2023-05-06T19:29:30.273Z,0.30
2023-05-06T19:32:32.674Z,0.82
2023-05-06T19:35:37.685Z,0.50
2023-05-06T19:38:40.817Z,0.50
2023-05-06T19:41:42.541Z,0.50
2023-05-06T19:44:46.880Z,0.50
2023-05-06T19:47:48.658Z,0.55
2023-05-06T19:50:51.494Z,0.50
2023-05-06T19:53:54.651Z,0.60
2023-05-06T19:56:56.350Z,0.60
2023-05-06T19:59:58.031Z,0.60
2023-05-06T20:03:01.012Z,0.68
2023-05-06T20:06:04.073Z,1.00
2023-05-06T20:09:07.806Z,0.82
2023-05-06T20:12:09.478Z,0.98
2023-05-06T20:15:11.747Z,0.47
2023-05-06T20:18:14.338Z,0.60
2023-05-06T20:21:16.731Z,0.68
2023-05-06T20:24:19.999Z,0.50
2023-05-06T20:27:22.370Z,0.80
2023-05-06T20:30:24.088Z,0.60
2023-05-06T20:33:25.985Z,0.60
2023-05-06T20:36:27.701Z,0.52
2023-05-06T20:39:30.864Z,0.70
2023-05-06T20:42:33.746Z,0.60
2023-05-06T20:45:36.837Z,0.70
2023-05-06T20:48:39.057Z,0.40
2023-05-06T20:51:41.004Z,0.90
2023-05-06T20:54:45.276Z,0.47
2023-05-06T20:57:46.960Z,0.60
2023-05-06T21:00:49.955Z,0.60
2023-05-06T21:03:51.797Z,0.50
2023-05-06T21:06:53.501Z,0.55
2023-05-06T21:09:57.011Z,0.60
2023-05-06T21:13:00.174Z,0.30
2023-05-06T21:19:22.721Z,0.50
2023-05-06T21:22:25.077Z,0.40
2023-05-06T21:25:28.151Z,0.32
2023-05-06T21:28:29.915Z,0.30
2023-05-06T21:31:31.818Z,0.40
2023-05-06T21:34:35.700Z,0.50
2023-05-06T21:37:38.935Z,0.40
2023-05-06T21:40:42.179Z,0.30
2023-05-06T21:43:43.945Z,0.30
2023-05-06T21:46:46.077Z,0.50
2023-05-06T21:49:48.128Z,0.32
2023-05-06T21:52:50.225Z,0.30
2023-05-06T21:55:53.647Z,0.20
2023-05-06T21:58:55.969Z,0.43
2023-05-06T22:01:57.875Z,0.40
2023-05-06T22:04:59.791Z,0.30
2023-05-06T22:08:02.841Z,0.57
2023-05-06T22:11:06.043Z,0.22
2023-05-06T22:14:07.933Z,0.50
2023-05-06T22:17:10.470Z,0.40
2023-05-06T22:20:13.429Z,0.40
2023-05-06T22:23:15.506Z,0.32
2023-05-06T22:26:18.793Z,0.38
2023-05-06T22:29:20.960Z,0.70
2023-05-06T22:32:22.977Z,0.50
2023-05-06T22:35:24.722Z,0.40
2023-05-06T22:38:26.481Z,0.40
2023-05-06T22:41:29.956Z,0.50
2023-05-06T22:44:31.954Z,0.28
2023-05-06T22:47:33.762Z,0.30
2023-05-06T22:50:36.572Z,0.50
2023-05-06T22:53:38.240Z,0.38
2023-05-06T22:56:41.228Z,0.30
2023-05-06T22:59:42.875Z,0.30
2023-05-06T23:02:44.628Z,0.70
2023-05-06T23:05:46.571Z,0.30
2023-05-06T23:08:48.459Z,0.50
2023-05-06T23:11:51.787Z,0.40
2023-05-06T23:14:53.489Z,0.50
2023-05-06T23:17:55.601Z,0.50
2023-05-06T23:20:57.357Z,0.30
2023-05-06T23:23:59.189Z,0.50
2023-05-06T23:27:02.405Z,0.50
2023-05-06T23:30:04.907Z,0.40
2023-05-06T23:33:07.646Z,0.57
2023-05-06T23:36:09.601Z,0.40
2023-05-06T23:39:12.205Z,0.50
2023-05-06T23:42:15.331Z,0.40
2023-05-06T23:45:17.429Z,0.60
2023-05-06T23:48:19.100Z,0.40
2023-05-06T23:51:20.885Z,0.63
2023-05-06T23:54:22.686Z,0.45
2023-05-06T23:57:25.852Z,0.47
